Kyokuyo Maru No.51 — JD4090 — position and weather

sailwx.info

Track history (hours):
 
Tides and Currents Weather Stations Pressure Air Temp Water Temp Dewpoint Dewpoint Depression Visibility Wind Speed Wind Dir Waves Ship Positions

Kyokuyo Maru No.51

Last reported at 2018-Feb-19 06:00 UTC. Time now 2018-Feb-19 06:09 UTC.
Position N 34°55' E 136°59'.

Length 75 m; draft 4.8 m.

Type: Cargo ship. MMSI: 431008517.

Date/timePositionNaut miles runAvg speedWind from/ knotsBaromVisibWave heightAir tempDewpointWater temp
2018-Feb-19 06:00N 34°55' E 136°59'0 0.0
2018-Feb-19 05:30N 34°55' E 136°59'0 0.0
2018-Feb-19 05:00N 34°55' E 136°59'0 0.0
2018-Feb-19 04:30N 34°55' E 136°59'0 0.0
2018-Feb-19 04:00N 34°55' E 136°59'0 0.0
2018-Feb-19 03:30N 34°55' E 136°59'0 0.0
2018-Feb-19 03:00N 34°55' E 136°59'0 0.0
2018-Feb-19 02:30N 34°55' E 136°59'0 0.0
2018-Feb-19 01:54N 34°55' E 136°59'0 0.0
2018-Feb-19 01:30N 34°55' E 136°59'0 0.0
2018-Feb-19 00:54N 34°55' E 136°59'0 0.0
2018-Feb-19 00:30N 34°55' E 136°59'0 0.0
2018-Feb-18 23:54N 34°55' E 136°59'0 0.0
2018-Feb-18 23:27N 34°55' E 136°59'0 0.0
2018-Feb-18 23:00N 34°55' E 136°59'0 0.0
2018-Feb-18 22:30N 34°55' E 136°59'0 0.1
2018-Feb-18 22:00N 34°55' E 136°59'4 7.1
2018-Feb-18 21:31N 34°51' E 136°57'3 4.8
2018-Feb-18 20:51N 34°48' E 136°57'0 0.0
2018-Feb-18 20:30N 34°48' E 136°57'0 0.0
2018-Feb-18 19:57N 34°48' E 136°57'0 0.0
2018-Feb-18 19:27N 34°48' E 136°57'0 0.0
2018-Feb-18 18:57N 34°48' E 136°57'0 0.0
2018-Feb-18 18:21N 34°48' E 136°57'0 0.0
2018-Feb-18 17:57N 34°48' E 136°57'0 0.0
2018-Feb-18 17:30N 34°48' E 136°57'2 3.7
2018-Feb-18 17:00N 34°46' E 136°58'108 9.2
2018-Feb-18 05:14N 33°50' E 135°06'313.9
2018-Feb-18 04:59N 33°52' E 135°03'714.0
2018-Feb-18 04:31N 33°59' E 135°02'713.9
2018-Feb-18 04:01N 34°06' E 135°02'713.9
2018-Feb-18 03:31N 34°13' E 135°03'714.0
2018-Feb-18 03:00N 34°20' E 135°04'713.5
2018-Feb-18 02:30N 34°26' E 135°08'612.9
2018-Feb-18 02:00N 34°31' E 135°12'613.0
2018-Feb-18 01:30N 34°37' E 135°16'510.3
2018-Feb-18 01:00N 34°42' E 135°15'0 0.3
2018-Feb-18 00:30N 34°42' E 135°15'0 0.0
2018-Feb-18 00:00N 34°42' E 135°15'0 0.0
2018-Feb-17 23:30N 34°42' E 135°15'0 0.0
2018-Feb-17 23:00N 34°42' E 135°15'0 0.0
2018-Feb-17 22:27N 34°42' E 135°15'0 0.0
2018-Feb-17 22:00N 34°42' E 135°15'0 0.0
2018-Feb-17 21:30N 34°42' E 135°15'0 0.0
2018-Feb-17 21:00N 34°42' E 135°15'0 0.0
2018-Feb-17 20:30N 34°42' E 135°15'0 0.0
2018-Feb-17 20:00N 34°42' E 135°15'0 0.0
2018-Feb-17 19:30N 34°42' E 135°15'0 0.0
2018-Feb-17 19:00N 34°42' E 135°15'0 0.0
2018-Feb-17 18:30N 34°42' E 135°15'0 0.0
2018-Feb-17 18:00N 34°42' E 135°15'0 0.0
2018-Feb-17 17:30N 34°42' E 135°15'0 0.0
2018-Feb-17 17:00N 34°42' E 135°15'0 0.0
2018-Feb-17 16:30N 34°42' E 135°15'0 0.0
2018-Feb-17 16:00N 34°42' E 135°15'0 0.0
2018-Feb-17 15:30N 34°42' E 135°15'0 0.0
2018-Feb-17 15:00N 34°42' E 135°15'0 0.0
2018-Feb-17 14:30N 34°42' E 135°15'0 0.0
2018-Feb-17 14:00N 34°42' E 135°15'0 0.0
2018-Feb-17 13:30N 34°42' E 135°15'0 0.0
2018-Feb-17 13:00N 34°42' E 135°15'0 0.0
2018-Feb-17 12:30N 34°42' E 135°15'0 0.0
2018-Feb-17 12:00N 34°42' E 135°15'0 0.0
2018-Feb-17 11:30N 34°42' E 135°15'0 0.0
2018-Feb-17 11:00N 34°42' E 135°15'0 0.0
2018-Feb-17 10:30N 34°42' E 135°15'0 0.0
2018-Feb-17 10:00N 34°42' E 135°15'0 0.0
2018-Feb-17 09:30N 34°42' E 135°15'0 0.0
2018-Feb-17 09:00N 34°42' E 135°15'0 0.0
2018-Feb-17 08:30N 34°42' E 135°15'0 0.0
2018-Feb-17 08:00N 34°42' E 135°15'0 0.0
2018-Feb-17 07:30N 34°42' E 135°15'0 0.0
2018-Feb-17 07:00N 34°42' E 135°15'0 0.0
2018-Feb-17 06:30N 34°42' E 135°15'0 0.0
2018-Feb-17 06:00N 34°42' E 135°15'0 0.0
2018-Feb-17 05:30N 34°42' E 135°15'0 0.0
2018-Feb-17 05:00N 34°42' E 135°15'0 0.0
2018-Feb-17 04:30N 34°42' E 135°15'0 0.0
2018-Feb-17 04:00N 34°42' E 135°15'0 0.0
2018-Feb-17 03:30N 34°42' E 135°15'0 0.0
2018-Feb-17 03:00N 34°42' E 135°15'0 0.0
2018-Feb-17 02:30N 34°42' E 135°15'0 0.0
2018-Feb-17 02:00N 34°42' E 135°15'0 0.0
2018-Feb-17 01:30N 34°42' E 135°15'0 0.0
2018-Feb-17 01:00N 34°42' E 135°15'0 0.0
2018-Feb-17 00:30N 34°42' E 135°15'0 0.0
2018-Feb-17 00:01N 34°42' E 135°15'4 7.2
2018-Feb-16 23:30N 34°39' E 135°15'0 0.4
2018-Feb-16 22:58N 34°38' E 135°15'0 0.0
2018-Feb-16 22:28N 34°38' E 135°15'0 0.0
2018-Feb-16 21:58N 34°38' E 135°15'0 0.0
2018-Feb-16 21:28N 34°38' E 135°15'0 0.0
2018-Feb-16 20:58N 34°38' E 135°15'0 0.0
2018-Feb-16 20:28N 34°38' E 135°15'0 0.0
2018-Feb-16 19:58N 34°38' E 135°15'0 0.0
2018-Feb-16 19:28N 34°38' E 135°15'0 0.0
2018-Feb-16 18:58N 34°38' E 135°15'0 0.0
2018-Feb-16 18:28N 34°38' E 135°15'0 0.0
2018-Feb-16 17:58N 34°38' E 135°15'0 0.0
2018-Feb-16 17:28N 34°38' E 135°15'0 0.0
2018-Feb-16 16:58N 34°38' E 135°15'0 0.0
2018-Feb-16 16:25N 34°38' E 135°15'0 0.0
2018-Feb-16 15:58N 34°38' E 135°15'0 0.1
2018-Feb-16 15:28N 34°38' E 135°15'0 0.1
2018-Feb-16 14:58N 34°38' E 135°15'0 0.0
2018-Feb-16 14:28N 34°38' E 135°15'0 0.1
2018-Feb-16 13:58N 34°38' E 135°15'0 0.0
2018-Feb-16 13:28N 34°38' E 135°15'0 0.0
2018-Feb-16 12:58N 34°38' E 135°15'0 0.0
2018-Feb-16 12:28N 34°38' E 135°15'0 0.0
2018-Feb-16 11:58N 34°38' E 135°15'0 0.0
2018-Feb-16 11:28N 34°38' E 135°15'0 0.0
2018-Feb-16 10:58N 34°38' E 135°15'0 0.0
2018-Feb-16 10:28N 34°38' E 135°15'0 0.1
2018-Feb-16 09:58N 34°38' E 135°15'0 0.0
2018-Feb-16 09:28N 34°38' E 135°15'0 0.0
2018-Feb-16 08:58N 34°38' E 135°15'0 0.0
2018-Feb-16 08:28N 34°38' E 135°15'0 0.0
2018-Feb-16 07:58N 34°38' E 135°15'0 0.0
2018-Feb-16 07:28N 34°38' E 135°15'0 0.0
2018-Feb-16 06:58N 34°38' E 135°15'0 0.0
2018-Feb-16 06:28N 34°38' E 135°15'0 0.0
2018-Feb-16 05:58N 34°38' E 135°15'0 0.0
2018-Feb-16 05:28N 34°38' E 135°15'0 0.0
2018-Feb-16 04:58N 34°38' E 135°15'0 0.0
2018-Feb-16 04:28N 34°38' E 135°15'0 0.0
2018-Feb-16 03:58N 34°38' E 135°15'2 3.6
2018-Feb-16 03:30N 34°38' E 135°17'4 8.3
2018-Feb-16 02:59N 34°36' E 135°22'0 0.0
2018-Feb-16 02:30N 34°36' E 135°22'4 8.5
2018-Feb-16 02:00N 34°33' E 135°18'713.8
2018-Feb-16 01:31N 34°28' E 135°13'713.8
2018-Feb-16 01:01N 34°22' E 135°07'713.9
2018-Feb-16 00:30N 34°16' E 135°03'714.0
2018-Feb-16 00:01N 34°09' E 135°03'713.8
2018-Feb-15 23:31N 34°02' E 135°03'713.7
2018-Feb-15 23:01N 33°55' E 135°03'11910.8
2018-Feb-15 11:58N 34°34' E 137°19'4613.2
2018-Feb-15 08:30N 34°35' E 138°14'812.2
2018-Feb-15 07:52N 34°41' E 138°19'513.6
2018-Feb-15 07:30N 34°46' E 138°21'713.5
2018-Feb-15 07:00N 34°52' E 138°25'612.8
2018-Feb-15 06:30N 34°57' E 138°30'612.7
2018-Feb-15 06:00N 35°01' E 138°35'611.9
2018-Feb-15 05:30N 35°06' E 138°40'3 5.6
2018-Feb-15 05:00N 35°09' E 138°41'0 0.0
2018-Feb-15 04:25N 35°09' E 138°41'0 0.0
2018-Feb-15 03:55N 35°09' E 138°41'0 0.0
2018-Feb-15 03:28N 35°09' E 138°41'0 0.0
2018-Feb-15 02:55N 35°09' E 138°41'0 0.0
2018-Feb-15 02:28N 35°09' E 138°41'0 0.0
2018-Feb-15 01:58N 35°09' E 138°41'0 0.0
2018-Feb-15 01:22N 35°09' E 138°41'0 0.0
2018-Feb-15 00:58N 35°09' E 138°41'0 0.0
2018-Feb-15 00:28N 35°09' E 138°41'0 0.0
2018-Feb-14 23:58N 35°09' E 138°41'0 0.0
2018-Feb-14 23:28N 35°09' E 138°41'0 0.0
2018-Feb-14 22:55N 35°09' E 138°41'0 0.0
2018-Feb-14 22:28N 35°09' E 138°41'0 0.0
2018-Feb-14 22:00N 35°09' E 138°41'3 5.1
2018-Feb-14 21:30N 35°06' E 138°40'611.9
2018-Feb-14 21:00N 35°03' E 138°34'2 3.3
2018-Feb-14 20:30N 35°03' E 138°32'0 0.0
2018-Feb-14 20:00N 35°03' E 138°32'0 0.0
2018-Feb-14 19:30N 35°03' E 138°32'0 0.0
2018-Feb-14 19:00N 35°03' E 138°32'0 0.0
2018-Feb-14 18:30N 35°03' E 138°32'0 0.0
2018-Feb-14 18:00N 35°03' E 138°32'0 0.0
2018-Feb-14 17:30N 35°03' E 138°32'3 5.3
2018-Feb-14 17:00N 35°00' E 138°33'713.8
2018-Feb-14 16:30N 34°54' E 138°29'713.9
2018-Feb-14 16:01N 34°48' E 138°25'714.1
2018-Feb-14 15:30N 34°42' E 138°21'713.6
2018-Feb-14 15:01N 34°36' E 138°17'713.1
2018-Feb-14 14:27N 34°34' E 138°08'4713.3
2018-Feb-14 10:56N 34°33' E 137°11'714.0
2018-Feb-14 10:27N 34°32' E 137°03'713.7
2018-Feb-14 09:59N 34°36' E 136°57'713.8
2018-Feb-14 09:30N 34°40' E 136°50'713.6
2018-Feb-14 09:00N 34°46' E 136°47'713.1
2018-Feb-14 08:30N 34°53' E 136°46'613.0
2018-Feb-14 08:00N 34°59' E 136°48'713.3
2018-Feb-14 07:30N 35°05' E 136°52'1 1.7
2018-Feb-14 06:59N 35°04' E 136°53'0 0.0
2018-Feb-14 06:29N 35°04' E 136°53'0 0.0
2018-Feb-14 05:56N 35°04' E 136°53'0 0.0
2018-Feb-14 05:29N 35°04' E 136°53'0 0.1
2018-Feb-14 04:59N 35°04' E 136°53'0 0.1
2018-Feb-14 04:29N 35°04' E 136°53'0 0.0
2018-Feb-14 03:59N 35°04' E 136°53'0 0.0
2018-Feb-14 03:29N 35°04' E 136°53'0 0.0
2018-Feb-14 02:59N 35°04' E 136°53'0 0.4
2018-Feb-14 02:30N 35°05' E 136°53'1 1.9
2018-Feb-14 01:58N 35°05' E 136°52'0 0.0
2018-Feb-14 01:28N 35°05' E 136°52'0 0.0
2018-Feb-14 00:58N 35°05' E 136°52'0 0.0
2018-Feb-14 00:28N 35°05' E 136°52'0 0.0
2018-Feb-13 23:58N 35°05' E 136°52'0 0.0
2018-Feb-13 23:28N 35°05' E 136°52'0 0.0
2018-Feb-13 22:58N 35°05' E 136°52'0 0.0
2018-Feb-13 22:28N 35°05' E 136°52'0 0.0
2018-Feb-13 21:58N 35°05' E 136°52'0 0.0
2018-Feb-13 21:28N 35°05' E 136°52'0 0.0
2018-Feb-13 20:58N 35°05' E 136°52'0 0.0
2018-Feb-13 20:28N 35°05' E 136°52'0 0.0
2018-Feb-13 19:58N 35°05' E 136°52'0 0.0
2018-Feb-13 19:28N 35°05' E 136°52'0 0.0
2018-Feb-13 18:58N 35°05' E 136°52'0 0.0
2018-Feb-13 18:28N 35°05' E 136°52'0 0.0
2018-Feb-13 17:58N 35°05' E 136°52'0 0.0
2018-Feb-13 17:28N 35°05' E 136°52'0 0.0
2018-Feb-13 16:58N 35°05' E 136°52'0 0.0
2018-Feb-13 16:28N 35°05' E 136°52'0 0.0
2018-Feb-13 15:58N 35°05' E 136°52'0 0.0
2018-Feb-13 15:28N 35°05' E 136°52'0 0.0
2018-Feb-13 14:58N 35°05' E 136°52'0 0.0
2018-Feb-13 14:28N 35°05' E 136°52'0 0.0
2018-Feb-13 13:58N 35°05' E 136°52'0 0.0
2018-Feb-13 13:28N 35°05' E 136°52'0 0.0
2018-Feb-13 12:58N 35°05' E 136°52'0 0.0
2018-Feb-13 12:28N 35°05' E 136°52'0 0.0
2018-Feb-13 11:58N 35°05' E 136°52'0 0.0
2018-Feb-13 11:28N 35°05' E 136°52'0 0.0
2018-Feb-13 10:58N 35°05' E 136°52'0 0.0
2018-Feb-13 10:28N 35°05' E 136°52'0 0.0
2018-Feb-13 09:58N 35°05' E 136°52'0 0.0
2018-Feb-13 09:28N 35°05' E 136°52'0 0.0
2018-Feb-13 08:58N 35°05' E 136°52'0 0.0
2018-Feb-13 08:28N 35°05' E 136°52'0 0.0
2018-Feb-13 07:58N 35°05' E 136°52'0 0.0
2018-Feb-13 07:28N 35°05' E 136°52'0 0.0
2018-Feb-13 06:58N 35°05' E 136°52'0 0.0
2018-Feb-13 06:28N 35°05' E 136°52'0 0.0
2018-Feb-13 05:55N 35°05' E 136°52'0 0.0
2018-Feb-13 05:28N 35°05' E 136°52'0 0.0
2018-Feb-13 04:58N 35°05' E 136°52'0 0.0
2018-Feb-13 04:28N 35°05' E 136°52'0 0.0
2018-Feb-13 03:58N 35°05' E 136°52'0 0.0
2018-Feb-13 03:28N 35°05' E 136°52'3 5.5
2018-Feb-13 03:00N 35°03' E 136°51'713.1
2018-Feb-13 02:30N 34°57' E 136°47'612.7
2018-Feb-13 02:00N 34°51' E 136°48'612.3
2018-Feb-13 01:30N 34°45' E 136°50'102 8.8
2018-Feb-12 13:52N 33°50' E 135°06'513.7
2018-Feb-12 13:30N 33°54' E 135°02'713.9
2018-Feb-12 13:00N 34°00' E 135°01'713.6
2018-Feb-12 12:30N 34°07' E 134°60'713.9
2018-Feb-12 12:01N 34°14' E 134°59'713.6
2018-Feb-12 11:30N 34°21' E 134°59'713.4
2018-Feb-12 11:00N 34°27' E 135°01'713.0
2018-Feb-12 10:30N 34°34' E 135°02'4 8.8
2018-Feb-12 10:00N 34°37' E 134°58'611.5
2018-Feb-12 09:30N 34°38' E 134°52'6 0.3
2018-Feb-11 11:08N 34°44' E 134°49'0 3.4
2018-Feb-11 11:00N 34°43' E 134°48'511.0
2018-Feb-11 10:30N 34°39' E 134°52'612.6
2018-Feb-11 10:00N 34°38' E 134°60'611.5
2018-Feb-11 09:30N 34°34' E 135°05'713.3
2018-Feb-11 09:00N 34°27' E 135°03'713.2
2018-Feb-11 08:30N 34°21' E 135°01'612.9
2018-Feb-11 08:00N 34°15' E 134°60'612.4
2018-Feb-11 07:30N 34°08' E 135°01'612.3
2018-Feb-11 07:00N 34°02' E 135°02'611.8
2018-Feb-11 06:30N 33°56' E 135°02'112 9.4
2018-Feb-10 18:37N 34°31' E 137°11'112.4
2018-Feb-10 18:30N 34°32' E 137°12'813.2
2018-Feb-10 17:56N 34°32' E 137°21'3313.2
2018-Feb-10 15:25N 34°33' E 138°02'2313.5
2018-Feb-10 13:43N 34°34' E 138°29'413.9
2018-Feb-10 13:28N 34°35' E 138°33'813.7
2018-Feb-10 12:51N 34°35' E 138°44'413.0
2018-Feb-10 12:30N 34°35' E 138°49'611.8
2018-Feb-10 12:00N 34°36' E 138°56'612.6
2018-Feb-10 11:30N 34°41' E 139°02'712.6
2018-Feb-10 10:59N 34°46' E 139°07'913.0
2018-Feb-10 10:16N 34°53' E 139°13'312.2
2018-Feb-10 10:00N 34°55' E 139°17'712.1
2018-Feb-10 09:27N 34°58' E 139°24'512.3
2018-Feb-10 09:00N 35°01' E 139°29'713.0
2018-Feb-10 08:28N 35°05' E 139°36'612.6
2018-Feb-10 08:00N 35°08' E 139°42'612.7
2018-Feb-10 07:30N 35°14' E 139°46'713.2
2018-Feb-10 07:00N 35°20' E 139°42'612.4
2018-Feb-10 06:30N 35°26' E 139°45'713.3
2018-Feb-10 06:00N 35°30' E 139°51'813.4
2018-Feb-10 05:26N 35°36' E 139°56'5 1.6
2018-Feb-10 02:32N 35°41' E 139°58'0 0.0
2018-Feb-10 02:14N 35°41' E 139°58'0 0.0
2018-Feb-10 01:59N 35°41' E 139°58'  
Track history (hours):
 
Tides and Currents Weather Stations Pressure Air Temp Water Temp Dewpoint Dewpoint Depression Visibility Wind Speed Wind Dir Waves Ship Positions

Kyokuyo Maru No.51

Last reported at 2018-Feb-19 06:00 UTC. Time now 2018-Feb-19 06:09 UTC.
Position N 34°55' E 136°59'.

Length 75 m; draft 4.8 m.

Type: Cargo ship. MMSI: 431008517.

Date/timePositionNaut miles runAvg speedWind from/ knotsBaromVisibWave heightAir tempDewpointWater temp
2018-Feb-19 06:00N 34°55' E 136°59'0 0.0
2018-Feb-19 05:30N 34°55' E 136°59'0 0.0
2018-Feb-19 05:00N 34°55' E 136°59'0 0.0
2018-Feb-19 04:30N 34°55' E 136°59'0 0.0
2018-Feb-19 04:00N 34°55' E 136°59'0 0.0
2018-Feb-19 03:30N 34°55' E 136°59'0 0.0
2018-Feb-19 03:00N 34°55' E 136°59'0 0.0
2018-Feb-19 02:30N 34°55' E 136°59'0 0.0
2018-Feb-19 01:54N 34°55' E 136°59'0 0.0
2018-Feb-19 01:30N 34°55' E 136°59'0 0.0
2018-Feb-19 00:54N 34°55' E 136°59'0 0.0
2018-Feb-19 00:30N 34°55' E 136°59'0 0.0
2018-Feb-18 23:54N 34°55' E 136°59'0 0.0
2018-Feb-18 23:27N 34°55' E 136°59'0 0.0
2018-Feb-18 23:00N 34°55' E 136°59'0 0.0
2018-Feb-18 22:30N 34°55' E 136°59'0 0.1
2018-Feb-18 22:00N 34°55' E 136°59'4 7.1
2018-Feb-18 21:31N 34°51' E 136°57'3 4.8
2018-Feb-18 20:51N 34°48' E 136°57'0 0.0
2018-Feb-18 20:30N 34°48' E 136°57'0 0.0
2018-Feb-18 19:57N 34°48' E 136°57'0 0.0
2018-Feb-18 19:27N 34°48' E 136°57'0 0.0
2018-Feb-18 18:57N 34°48' E 136°57'0 0.0
2018-Feb-18 18:21N 34°48' E 136°57'0 0.0
2018-Feb-18 17:57N 34°48' E 136°57'0 0.0
2018-Feb-18 17:30N 34°48' E 136°57'2 3.7
2018-Feb-18 17:00N 34°46' E 136°58'108 9.2
2018-Feb-18 05:14N 33°50' E 135°06'313.9
2018-Feb-18 04:59N 33°52' E 135°03'714.0
2018-Feb-18 04:31N 33°59' E 135°02'713.9
2018-Feb-18 04:01N 34°06' E 135°02'713.9
2018-Feb-18 03:31N 34°13' E 135°03'714.0
2018-Feb-18 03:00N 34°20' E 135°04'713.5
2018-Feb-18 02:30N 34°26' E 135°08'612.9
2018-Feb-18 02:00N 34°31' E 135°12'613.0
2018-Feb-18 01:30N 34°37' E 135°16'510.3
2018-Feb-18 01:00N 34°42' E 135°15'0 0.3
2018-Feb-18 00:30N 34°42' E 135°15'0 0.0
2018-Feb-18 00:00N 34°42' E 135°15'0 0.0
2018-Feb-17 23:30N 34°42' E 135°15'0 0.0
2018-Feb-17 23:00N 34°42' E 135°15'0 0.0
2018-Feb-17 22:27N 34°42' E 135°15'0 0.0
2018-Feb-17 22:00N 34°42' E 135°15'0 0.0
2018-Feb-17 21:30N 34°42' E 135°15'0 0.0
2018-Feb-17 21:00N 34°42' E 135°15'0 0.0
2018-Feb-17 20:30N 34°42' E 135°15'0 0.0
2018-Feb-17 20:00N 34°42' E 135°15'0 0.0
2018-Feb-17 19:30N 34°42' E 135°15'0 0.0
2018-Feb-17 19:00N 34°42' E 135°15'0 0.0
2018-Feb-17 18:30N 34°42' E 135°15'0 0.0
2018-Feb-17 18:00N 34°42' E 135°15'0 0.0
2018-Feb-17 17:30N 34°42' E 135°15'0 0.0
2018-Feb-17 17:00N 34°42' E 135°15'0 0.0
2018-Feb-17 16:30N 34°42' E 135°15'0 0.0
2018-Feb-17 16:00N 34°42' E 135°15'0 0.0
2018-Feb-17 15:30N 34°42' E 135°15'0 0.0
2018-Feb-17 15:00N 34°42' E 135°15'0 0.0
2018-Feb-17 14:30N 34°42' E 135°15'0 0.0
2018-Feb-17 14:00N 34°42' E 135°15'0 0.0
2018-Feb-17 13:30N 34°42' E 135°15'0 0.0
2018-Feb-17 13:00N 34°42' E 135°15'0 0.0
2018-Feb-17 12:30N 34°42' E 135°15'0 0.0
2018-Feb-17 12:00N 34°42' E 135°15'0 0.0
2018-Feb-17 11:30N 34°42' E 135°15'0 0.0
2018-Feb-17 11:00N 34°42' E 135°15'0 0.0
2018-Feb-17 10:30N 34°42' E 135°15'0 0.0
2018-Feb-17 10:00N 34°42' E 135°15'0 0.0
2018-Feb-17 09:30N 34°42' E 135°15'0 0.0
2018-Feb-17 09:00N 34°42' E 135°15'0 0.0
2018-Feb-17 08:30N 34°42' E 135°15'0 0.0
2018-Feb-17 08:00N 34°42' E 135°15'0 0.0
2018-Feb-17 07:30N 34°42' E 135°15'0 0.0
2018-Feb-17 07:00N 34°42' E 135°15'0 0.0
2018-Feb-17 06:30N 34°42' E 135°15'0 0.0
2018-Feb-17 06:00N 34°42' E 135°15'0 0.0
2018-Feb-17 05:30N 34°42' E 135°15'0 0.0
2018-Feb-17 05:00N 34°42' E 135°15'0 0.0
2018-Feb-17 04:30N 34°42' E 135°15'0 0.0
2018-Feb-17 04:00N 34°42' E 135°15'0 0.0
2018-Feb-17 03:30N 34°42' E 135°15'0 0.0
2018-Feb-17 03:00N 34°42' E 135°15'0 0.0
2018-Feb-17 02:30N 34°42' E 135°15'0 0.0
2018-Feb-17 02:00N 34°42' E 135°15'0 0.0
2018-Feb-17 01:30N 34°42' E 135°15'0 0.0
2018-Feb-17 01:00N 34°42' E 135°15'0 0.0
2018-Feb-17 00:30N 34°42' E 135°15'0 0.0
2018-Feb-17 00:01N 34°42' E 135°15'4 7.2
2018-Feb-16 23:30N 34°39' E 135°15'0 0.4
2018-Feb-16 22:58N 34°38' E 135°15'0 0.0
2018-Feb-16 22:28N 34°38' E 135°15'0 0.0
2018-Feb-16 21:58N 34°38' E 135°15'0 0.0
2018-Feb-16 21:28N 34°38' E 135°15'0 0.0
2018-Feb-16 20:58N 34°38' E 135°15'0 0.0
2018-Feb-16 20:28N 34°38' E 135°15'0 0.0
2018-Feb-16 19:58N 34°38' E 135°15'0 0.0
2018-Feb-16 19:28N 34°38' E 135°15'0 0.0
2018-Feb-16 18:58N 34°38' E 135°15'0 0.0
2018-Feb-16 18:28N 34°38' E 135°15'0 0.0
2018-Feb-16 17:58N 34°38' E 135°15'0 0.0
2018-Feb-16 17:28N 34°38' E 135°15'0 0.0
2018-Feb-16 16:58N 34°38' E 135°15'0 0.0
2018-Feb-16 16:25N 34°38' E 135°15'0 0.0
2018-Feb-16 15:58N 34°38' E 135°15'0 0.1
2018-Feb-16 15:28N 34°38' E 135°15'0 0.1
2018-Feb-16 14:58N 34°38' E 135°15'0 0.0
2018-Feb-16 14:28N 34°38' E 135°15'0 0.1
2018-Feb-16 13:58N 34°38' E 135°15'0 0.0
2018-Feb-16 13:28N 34°38' E 135°15'0 0.0
2018-Feb-16 12:58N 34°38' E 135°15'0 0.0
2018-Feb-16 12:28N 34°38' E 135°15'0 0.0
2018-Feb-16 11:58N 34°38' E 135°15'0 0.0
2018-Feb-16 11:28N 34°38' E 135°15'0 0.0
2018-Feb-16 10:58N 34°38' E 135°15'0 0.0
2018-Feb-16 10:28N 34°38' E 135°15'0 0.1
2018-Feb-16 09:58N 34°38' E 135°15'0 0.0
2018-Feb-16 09:28N 34°38' E 135°15'0 0.0
2018-Feb-16 08:58N 34°38' E 135°15'0 0.0
2018-Feb-16 08:28N 34°38' E 135°15'0 0.0
2018-Feb-16 07:58N 34°38' E 135°15'0 0.0
2018-Feb-16 07:28N 34°38' E 135°15'0 0.0
2018-Feb-16 06:58N 34°38' E 135°15'0 0.0
2018-Feb-16 06:28N 34°38' E 135°15'0 0.0
2018-Feb-16 05:58N 34°38' E 135°15'0 0.0
2018-Feb-16 05:28N 34°38' E 135°15'0 0.0
2018-Feb-16 04:58N 34°38' E 135°15'0 0.0
2018-Feb-16 04:28N 34°38' E 135°15'0 0.0
2018-Feb-16 03:58N 34°38' E 135°15'2 3.6
2018-Feb-16 03:30N 34°38' E 135°17'4 8.3
2018-Feb-16 02:59N 34°36' E 135°22'0 0.0
2018-Feb-16 02:30N 34°36' E 135°22'4 8.5
2018-Feb-16 02:00N 34°33' E 135°18'713.8
2018-Feb-16 01:31N 34°28' E 135°13'713.8
2018-Feb-16 01:01N 34°22' E 135°07'713.9
2018-Feb-16 00:30N 34°16' E 135°03'714.0
2018-Feb-16 00:01N 34°09' E 135°03'713.8
2018-Feb-15 23:31N 34°02' E 135°03'713.7
2018-Feb-15 23:01N 33°55' E 135°03'11910.8
2018-Feb-15 11:58N 34°34' E 137°19'4613.2
2018-Feb-15 08:30N 34°35' E 138°14'812.2
2018-Feb-15 07:52N 34°41' E 138°19'513.6
2018-Feb-15 07:30N 34°46' E 138°21'713.5
2018-Feb-15 07:00N 34°52' E 138°25'612.8
2018-Feb-15 06:30N 34°57' E 138°30'612.7
2018-Feb-15 06:00N 35°01' E 138°35'611.9
2018-Feb-15 05:30N 35°06' E 138°40'3 5.6
2018-Feb-15 05:00N 35°09' E 138°41'0 0.0
2018-Feb-15 04:25N 35°09' E 138°41'0 0.0
2018-Feb-15 03:55N 35°09' E 138°41'0 0.0
2018-Feb-15 03:28N 35°09' E 138°41'0 0.0
2018-Feb-15 02:55N 35°09' E 138°41'0 0.0
2018-Feb-15 02:28N 35°09' E 138°41'0 0.0
2018-Feb-15 01:58N 35°09' E 138°41'0 0.0
2018-Feb-15 01:22N 35°09' E 138°41'0 0.0
2018-Feb-15 00:58N 35°09' E 138°41'0 0.0
2018-Feb-15 00:28N 35°09' E 138°41'0 0.0
2018-Feb-14 23:58N 35°09' E 138°41'0 0.0
2018-Feb-14 23:28N 35°09' E 138°41'0 0.0
2018-Feb-14 22:55N 35°09' E 138°41'0 0.0
2018-Feb-14 22:28N 35°09' E 138°41'0 0.0
2018-Feb-14 22:00N 35°09' E 138°41'3 5.1
2018-Feb-14 21:30N 35°06' E 138°40'611.9
2018-Feb-14 21:00N 35°03' E 138°34'2 3.3
2018-Feb-14 20:30N 35°03' E 138°32'0 0.0
2018-Feb-14 20:00N 35°03' E 138°32'0 0.0
2018-Feb-14 19:30N 35°03' E 138°32'0 0.0
2018-Feb-14 19:00N 35°03' E 138°32'0 0.0
2018-Feb-14 18:30N 35°03' E 138°32'0 0.0
2018-Feb-14 18:00N 35°03' E 138°32'0 0.0
2018-Feb-14 17:30N 35°03' E 138°32'3 5.3
2018-Feb-14 17:00N 35°00' E 138°33'713.8
2018-Feb-14 16:30N 34°54' E 138°29'713.9
2018-Feb-14 16:01N 34°48' E 138°25'714.1
2018-Feb-14 15:30N 34°42' E 138°21'713.6
2018-Feb-14 15:01N 34°36' E 138°17'713.1
2018-Feb-14 14:27N 34°34' E 138°08'4713.3
2018-Feb-14 10:56N 34°33' E 137°11'714.0
2018-Feb-14 10:27N 34°32' E 137°03'713.7
2018-Feb-14 09:59N 34°36' E 136°57'713.8
2018-Feb-14 09:30N 34°40' E 136°50'713.6
2018-Feb-14 09:00N 34°46' E 136°47'713.1
2018-Feb-14 08:30N 34°53' E 136°46'613.0
2018-Feb-14 08:00N 34°59' E 136°48'713.3
2018-Feb-14 07:30N 35°05' E 136°52'1 1.7
2018-Feb-14 06:59N 35°04' E 136°53'0 0.0
2018-Feb-14 06:29N 35°04' E 136°53'0 0.0
2018-Feb-14 05:56N 35°04' E 136°53'0 0.0
2018-Feb-14 05:29N 35°04' E 136°53'0 0.1
2018-Feb-14 04:59N 35°04' E 136°53'0 0.1
2018-Feb-14 04:29N 35°04' E 136°53'0 0.0
2018-Feb-14 03:59N 35°04' E 136°53'0 0.0
2018-Feb-14 03:29N 35°04' E 136°53'0 0.0
2018-Feb-14 02:59N 35°04' E 136°53'0 0.4
2018-Feb-14 02:30N 35°05' E 136°53'1 1.9
2018-Feb-14 01:58N 35°05' E 136°52'0 0.0
2018-Feb-14 01:28N 35°05' E 136°52'0 0.0
2018-Feb-14 00:58N 35°05' E 136°52'0 0.0
2018-Feb-14 00:28N 35°05' E 136°52'0 0.0
2018-Feb-13 23:58N 35°05' E 136°52'0 0.0
2018-Feb-13 23:28N 35°05' E 136°52'0 0.0
2018-Feb-13 22:58N 35°05' E 136°52'0 0.0
2018-Feb-13 22:28N 35°05' E 136°52'0 0.0
2018-Feb-13 21:58N 35°05' E 136°52'0 0.0
2018-Feb-13 21:28N 35°05' E 136°52'0 0.0
2018-Feb-13 20:58N 35°05' E 136°52'0 0.0
2018-Feb-13 20:28N 35°05' E 136°52'0 0.0
2018-Feb-13 19:58N 35°05' E 136°52'0 0.0
2018-Feb-13 19:28N 35°05' E 136°52'0 0.0
2018-Feb-13 18:58N 35°05' E 136°52'0 0.0
2018-Feb-13 18:28N 35°05' E 136°52'0 0.0
2018-Feb-13 17:58N 35°05' E 136°52'0 0.0
2018-Feb-13 17:28N 35°05' E 136°52'0 0.0
2018-Feb-13 16:58N 35°05' E 136°52'0 0.0
2018-Feb-13 16:28N 35°05' E 136°52'0 0.0
2018-Feb-13 15:58N 35°05' E 136°52'0 0.0
2018-Feb-13 15:28N 35°05' E 136°52'0 0.0
2018-Feb-13 14:58N 35°05' E 136°52'0 0.0
2018-Feb-13 14:28N 35°05' E 136°52'0 0.0
2018-Feb-13 13:58N 35°05' E 136°52'0 0.0
2018-Feb-13 13:28N 35°05' E 136°52'0 0.0
2018-Feb-13 12:58N 35°05' E 136°52'0 0.0
2018-Feb-13 12:28N 35°05' E 136°52'0 0.0
2018-Feb-13 11:58N 35°05' E 136°52'0 0.0
2018-Feb-13 11:28N 35°05' E 136°52'0 0.0
2018-Feb-13 10:58N 35°05' E 136°52'0 0.0
2018-Feb-13 10:28N 35°05' E 136°52'0 0.0
2018-Feb-13 09:58N 35°05' E 136°52'0 0.0
2018-Feb-13 09:28N 35°05' E 136°52'0 0.0
2018-Feb-13 08:58N 35°05' E 136°52'0 0.0
2018-Feb-13 08:28N 35°05' E 136°52'0 0.0
2018-Feb-13 07:58N 35°05' E 136°52'0 0.0
2018-Feb-13 07:28N 35°05' E 136°52'0 0.0
2018-Feb-13 06:58N 35°05' E 136°52'0 0.0
2018-Feb-13 06:28N 35°05' E 136°52'0 0.0
2018-Feb-13 05:55N 35°05' E 136°52'0 0.0
2018-Feb-13 05:28N 35°05' E 136°52'0 0.0
2018-Feb-13 04:58N 35°05' E 136°52'0 0.0
2018-Feb-13 04:28N 35°05' E 136°52'0 0.0
2018-Feb-13 03:58N 35°05' E 136°52'0 0.0
2018-Feb-13 03:28N 35°05' E 136°52'3 5.5
2018-Feb-13 03:00N 35°03' E 136°51'713.1
2018-Feb-13 02:30N 34°57' E 136°47'612.7
2018-Feb-13 02:00N 34°51' E 136°48'612.3
2018-Feb-13 01:30N 34°45' E 136°50'102 8.8
2018-Feb-12 13:52N 33°50' E 135°06'513.7
2018-Feb-12 13:30N 33°54' E 135°02'713.9
2018-Feb-12 13:00N 34°00' E 135°01'713.6
2018-Feb-12 12:30N 34°07' E 134°60'713.9
2018-Feb-12 12:01N 34°14' E 134°59'713.6
2018-Feb-12 11:30N 34°21' E 134°59'713.4
2018-Feb-12 11:00N 34°27' E 135°01'713.0
2018-Feb-12 10:30N 34°34' E 135°02'4 8.8
2018-Feb-12 10:00N 34°37' E 134°58'611.5
2018-Feb-12 09:30N 34°38' E 134°52'6 0.3
2018-Feb-11 11:08N 34°44' E 134°49'0 3.4
2018-Feb-11 11:00N 34°43' E 134°48'511.0
2018-Feb-11 10:30N 34°39' E 134°52'612.6
2018-Feb-11 10:00N 34°38' E 134°60'611.5
2018-Feb-11 09:30N 34°34' E 135°05'713.3
2018-Feb-11 09:00N 34°27' E 135°03'713.2
2018-Feb-11 08:30N 34°21' E 135°01'612.9
2018-Feb-11 08:00N 34°15' E 134°60'612.4
2018-Feb-11 07:30N 34°08' E 135°01'612.3
2018-Feb-11 07:00N 34°02' E 135°02'611.8
2018-Feb-11 06:30N 33°56' E 135°02'112 9.4
2018-Feb-10 18:37N 34°31' E 137°11'112.4
2018-Feb-10 18:30N 34°32' E 137°12'813.2
2018-Feb-10 17:56N 34°32' E 137°21'3313.2
2018-Feb-10 15:25N 34°33' E 138°02'2313.5
2018-Feb-10 13:43N 34°34' E 138°29'413.9
2018-Feb-10 13:28N 34°35' E 138°33'813.7
2018-Feb-10 12:51N 34°35' E 138°44'413.0
2018-Feb-10 12:30N 34°35' E 138°49'611.8
2018-Feb-10 12:00N 34°36' E 138°56'612.6
2018-Feb-10 11:30N 34°41' E 139°02'712.6
2018-Feb-10 10:59N 34°46' E 139°07'913.0
2018-Feb-10 10:16N 34°53' E 139°13'312.2
2018-Feb-10 10:00N 34°55' E 139°17'712.1
2018-Feb-10 09:27N 34°58' E 139°24'512.3
2018-Feb-10 09:00N 35°01' E 139°29'713.0
2018-Feb-10 08:28N 35°05' E 139°36'612.6
2018-Feb-10 08:00N 35°08' E 139°42'612.7
2018-Feb-10 07:30N 35°14' E 139°46'713.2
2018-Feb-10 07:00N 35°20' E 139°42'612.4
2018-Feb-10 06:30N 35°26' E 139°45'713.3
2018-Feb-10 06:00N 35°30' E 139°51'813.4
2018-Feb-10 05:26N 35°36' E 139°56'5 1.6
2018-Feb-10 02:32N 35°41' E 139°58'0 0.0
2018-Feb-10 02:14N 35°41' E 139°58'0 0.0
2018-Feb-10 01:59N 35°41' E 139°58'  

Dump ship's entire track history